createdAt,value
2019-02-15T00:00:43.268Z,1.94
2019-02-15T00:03:12.910Z,1.93
2019-02-15T00:05:42.227Z,1.89
2019-02-15T00:08:11.587Z,1.86
2019-02-15T00:10:40.950Z,1.81
2019-02-15T00:13:13.531Z,1.80
2019-02-15T00:15:41.358Z,1.75
2019-02-15T00:18:15.702Z,1.73
2019-02-15T00:20:46.774Z,1.81
2019-02-15T00:23:16.432Z,1.78
2019-02-15T00:25:45.777Z,1.83
2019-02-15T00:28:15.103Z,1.79
2019-02-15T00:30:44.729Z,1.61
2019-02-15T00:33:14.036Z,1.68
2019-02-15T00:35:43.633Z,1.52
2019-02-15T00:38:12.998Z,1.61
2019-02-15T00:40:42.566Z,1.53
2019-02-15T00:43:11.903Z,1.42
2019-02-15T00:45:43.138Z,1.41
2019-02-15T00:48:17.090Z,1.29
2019-02-15T00:50:48.300Z,1.31
2019-02-15T00:53:35.418Z,1.26
2019-02-15T00:56:07.463Z,1.27
2019-02-15T00:58:38.705Z,1.21
2019-02-15T01:01:10.031Z,1.19
2019-02-15T01:03:46.955Z,1.23
2019-02-15T01:06:20.870Z,1.12
2019-02-15T01:09:09.650Z,1.26
2019-02-15T01:11:49.823Z,1.19
2019-02-15T01:14:19.408Z,1.19
2019-02-15T01:16:49.121Z,1.13
2019-02-15T01:19:18.728Z,1.09
2019-02-15T01:21:48.571Z,1.07
2019-02-15T01:24:17.920Z,1.04
2019-02-15T01:26:48.900Z,1.04
2019-02-15T01:29:19.925Z,1.08
2019-02-15T01:32:06.795Z,1.17
2019-02-15T01:34:37.747Z,1.13
2019-02-15T01:37:17.510Z,1.13
2019-02-15T01:39:48.477Z,1.29
2019-02-15T01:42:29.052Z,1.19
2019-02-15T01:45:00.539Z,1.20
2019-02-15T01:47:30.007Z,1.04
2019-02-15T01:50:00.922Z,0.96
2019-02-15T01:52:30.297Z,0.83
2019-02-15T01:54:59.627Z,0.75
2019-02-15T01:57:28.971Z,0.71
2019-02-15T01:59:58.338Z,0.68
2019-02-15T02:02:29.676Z,0.72
2019-02-15T02:04:58.991Z,0.70
2019-02-15T02:07:28.420Z,0.69
2019-02-15T02:09:58.196Z,0.69
2019-02-15T02:12:27.523Z,0.79
2019-02-15T02:14:56.879Z,0.80
2019-02-15T02:17:26.607Z,0.82
2019-02-15T02:19:55.993Z,0.75
2019-02-15T02:22:25.330Z,0.76
2019-02-15T02:24:54.652Z,0.82
2019-02-15T02:27:24.002Z,0.79
2019-02-15T02:29:53.426Z,0.76
2019-02-15T02:32:23.126Z,0.67
2019-02-15T02:34:59.895Z,0.62
2019-02-15T02:37:29.336Z,0.54
2019-02-15T02:39:59.014Z,0.63
2019-02-15T02:42:28.611Z,0.54
2019-02-15T02:44:58.004Z,0.55
2019-02-15T02:47:27.422Z,0.53
2019-02-15T02:49:56.754Z,0.52
2019-02-15T02:52:26.179Z,0.52
2019-02-15T02:54:55.578Z,0.52
2019-02-15T02:57:25.334Z,0.49
2019-02-15T02:59:54.663Z,0.49
2019-02-15T03:02:24.049Z,0.51
2019-02-15T03:04:53.363Z,0.52
2019-02-15T03:07:23.055Z,0.50
2019-02-15T03:09:52.510Z,0.50
2019-02-15T03:12:22.322Z,0.48
2019-02-15T03:14:51.637Z,0.59
2019-02-15T03:17:21.492Z,0.55
2019-02-15T03:19:50.896Z,0.48
2019-02-15T03:22:20.725Z,0.52
2019-02-15T03:24:50.058Z,0.48
2019-02-15T03:27:19.438Z,0.43
2019-02-15T03:29:49.119Z,0.45
2019-02-15T03:32:18.437Z,0.47
2019-02-15T03:34:47.736Z,0.50
2019-02-15T03:37:24.767Z,0.38
2019-02-15T03:39:55.770Z,0.37
2019-02-15T03:42:25.250Z,0.34
2019-02-15T03:44:54.639Z,0.38
2019-02-15T03:47:24.844Z,0.41
2019-02-15T03:49:54.187Z,0.47
2019-02-15T03:52:23.512Z,0.44
2019-02-15T03:54:52.896Z,0.34
2019-02-15T03:57:22.263Z,0.40
2019-02-15T03:59:52.215Z,0.32
2019-02-15T04:02:21.646Z,0.28
2019-02-15T04:04:51.040Z,0.26
2019-02-15T04:07:20.417Z,0.30
2019-02-15T04:09:50.122Z,0.29
2019-02-15T04:12:19.439Z,0.31
2019-02-15T04:14:48.775Z,0.40
2019-02-15T04:17:18.108Z,0.29
2019-02-15T04:19:48.217Z,0.20
2019-02-15T04:22:17.536Z,0.30
2019-02-15T04:24:47.109Z,0.25
2019-02-15T04:27:16.506Z,0.20
2019-02-15T04:29:46.113Z,0.25
2019-02-15T04:32:16.034Z,0.14
2019-02-15T04:34:45.328Z,0.17
2019-02-15T04:37:14.693Z,0.12
2019-02-15T04:39:44.381Z,0.09
2019-02-15T04:42:13.973Z,0.01
2019-02-15T04:44:43.564Z,0.00
2019-02-15T04:47:12.961Z,-0.03
2019-02-15T04:49:42.398Z,-0.04
2019-02-15T04:52:11.929Z,-0.06
2019-02-15T04:54:41.770Z,-0.05
2019-02-15T04:57:11.420Z,-0.09
2019-02-15T04:59:41.205Z,0.26
2019-02-15T05:02:10.824Z,0.51
2019-02-15T05:04:40.427Z,0.80
2019-02-15T05:07:09.737Z,1.02
2019-02-15T05:09:44.254Z,0.76
2019-02-15T05:12:13.285Z,0.52
2019-02-15T05:14:52.465Z,0.39
2019-02-15T05:17:14.223Z,0.30
2019-02-15T05:19:43.677Z,0.28
2019-02-15T05:22:12.995Z,0.16
2019-02-15T05:24:42.321Z,0.10
2019-02-15T05:27:11.686Z,0.02
2019-02-15T05:29:41.077Z,0.02
2019-02-15T05:32:10.837Z,0.02
2019-02-15T05:34:40.404Z,0.02
2019-02-15T05:37:09.730Z,0.03
2019-02-15T05:39:39.068Z,0.02
2019-02-15T05:42:08.424Z,-0.03
2019-02-15T05:44:38.491Z,0.04
2019-02-15T05:47:08.288Z,-0.05
2019-02-15T05:49:37.984Z,-0.06
2019-02-15T05:52:07.919Z,-0.05
2019-02-15T05:54:37.278Z,-0.15
2019-02-15T05:57:06.590Z,-0.14
2019-02-15T05:59:35.890Z,-0.19
2019-02-15T06:02:05.618Z,-0.20
2019-02-15T06:04:35.023Z,-0.17
2019-02-15T06:07:04.358Z,-0.20
2019-02-15T06:09:33.770Z,-0.23
2019-02-15T06:12:03.631Z,-0.23
2019-02-15T06:14:33.426Z,-0.21
2019-02-15T06:17:03.187Z,-0.24
2019-02-15T06:19:33.435Z,-0.25
2019-02-15T06:22:04.268Z,-0.22
2019-02-15T06:24:33.587Z,-0.27
2019-02-15T06:27:02.989Z,-0.22
2019-02-15T06:29:32.417Z,-0.26
2019-02-15T06:32:02.165Z,-0.20
2019-02-15T06:34:31.473Z,-0.18
2019-02-15T06:37:03.630Z,-0.11
2019-02-15T06:39:33.047Z,-0.03
2019-02-15T06:42:02.725Z,0.02
2019-02-15T06:44:32.070Z,0.01
2019-02-15T06:47:01.440Z,-0.03
2019-02-15T06:49:31.171Z,0.00
2019-02-15T06:52:02.047Z,0.09
2019-02-15T06:54:31.761Z,0.06
2019-02-15T06:57:01.385Z,0.11
2019-02-15T06:59:45.512Z,0.12
2019-02-15T07:02:28.372Z,0.22
2019-02-15T07:05:08.356Z,0.29
2019-02-15T07:07:38.004Z,0.25
2019-02-15T07:10:08.220Z,0.32
2019-02-15T07:12:37.834Z,0.28
2019-02-15T07:15:08.352Z,0.29
2019-02-15T07:17:37.972Z,0.34
2019-02-15T07:20:10.051Z,0.46
2019-02-15T07:22:39.383Z,0.53
2019-02-15T07:25:11.819Z,0.48
2019-02-15T07:27:41.165Z,0.53
2019-02-15T07:30:15.642Z,0.57
2019-02-15T07:32:45.087Z,0.68
2019-02-15T07:35:14.733Z,0.76
2019-02-15T07:37:44.154Z,0.88
2019-02-15T07:40:13.840Z,0.83
2019-02-15T07:42:43.156Z,0.87
2019-02-15T07:45:12.486Z,1.01
2019-02-15T07:47:42.151Z,1.10
2019-02-15T07:50:15.507Z,1.08
2019-02-15T07:52:44.904Z,1.09
2019-02-15T07:55:14.559Z,1.13
2019-02-15T07:57:43.918Z,1.18
2019-02-15T08:00:15.148Z,1.21
2019-02-15T08:02:44.817Z,1.27
2019-02-15T08:05:14.151Z,1.57
2019-02-15T08:07:43.845Z,1.67
2019-02-15T08:10:13.503Z,1.72
2019-02-15T08:12:43.128Z,1.88
2019-02-15T08:15:12.536Z,1.91
2019-02-15T08:17:41.938Z,1.95
2019-02-15T08:20:12.577Z,1.98
2019-02-15T08:22:42.018Z,2.06
2019-02-15T08:25:11.371Z,2.04
2019-02-15T08:27:41.006Z,2.17
2019-02-15T08:30:11.907Z,2.38
2019-02-15T08:32:41.524Z,2.45
2019-02-15T08:35:11.947Z,2.49
2019-02-15T08:37:41.322Z,2.52
2019-02-15T08:40:11.801Z,2.56
2019-02-15T08:42:41.474Z,2.70
2019-02-15T08:45:13.325Z,2.96
2019-02-15T08:47:42.951Z,3.06
2019-02-15T08:50:13.122Z,3.12
2019-02-15T08:52:42.731Z,3.14
2019-02-15T08:55:12.996Z,3.21
2019-02-15T08:57:42.603Z,3.28
2019-02-15T09:00:13.558Z,3.38
2019-02-15T09:02:42.887Z,3.62
2019-02-15T09:05:13.240Z,3.74
2019-02-15T09:07:42.601Z,3.84
2019-02-15T09:10:13.885Z,3.98
2019-02-15T09:12:43.487Z,4.08
2019-02-15T09:15:19.785Z,4.08
2019-02-15T09:17:49.381Z,4.08
2019-02-15T09:20:18.680Z,4.12
2019-02-15T09:22:48.400Z,4.24
2019-02-15T09:25:17.841Z,4.35
2019-02-15T09:27:48.811Z,4.55
2019-02-15T09:30:18.192Z,4.59
2019-02-15T09:32:47.774Z,4.85
2019-02-15T09:35:17.163Z,5.01
2019-02-15T09:37:46.965Z,5.03
2019-02-15T09:40:16.375Z,5.10
2019-02-15T09:42:45.681Z,5.32
2019-02-15T09:45:15.360Z,5.33
2019-02-15T09:47:44.956Z,5.41
2019-02-15T09:50:14.337Z,5.56
2019-02-15T09:52:44.004Z,5.85
2019-02-15T09:55:13.693Z,5.96
2019-02-15T09:57:43.394Z,6.12
2019-02-15T10:00:12.750Z,6.27
2019-02-15T10:02:42.333Z,6.19
2019-02-15T10:05:12.317Z,6.41
2019-02-15T10:07:41.669Z,6.52
2019-02-15T10:10:11.641Z,6.64
2019-02-15T10:12:40.995Z,7.04
2019-02-15T10:15:11.719Z,7.38
2019-02-15T10:17:41.479Z,8.03
2019-02-15T10:20:10.802Z,8.89
2019-02-15T10:22:40.136Z,9.94
2019-02-15T10:25:10.657Z,10.83
2019-02-15T10:27:40.418Z,11.63
2019-02-15T10:30:13.676Z,12.82
2019-02-15T10:32:43.045Z,12.69
2019-02-15T10:35:12.362Z,13.53
2019-02-15T10:37:41.707Z,14.58
2019-02-15T10:40:12.425Z,14.79
2019-02-15T10:42:42.018Z,15.73
2019-02-15T10:45:16.197Z,15.97
2019-02-15T10:47:45.817Z,16.60
2019-02-15T10:50:15.382Z,17.10
2019-02-15T10:52:44.984Z,17.47
2019-02-15T10:55:14.304Z,17.66
2019-02-15T10:57:43.623Z,17.92
2019-02-15T11:00:18.399Z,17.70
2019-02-15T11:02:48.112Z,16.93
2019-02-15T11:05:18.824Z,17.96
2019-02-15T11:07:48.154Z,19.08
2019-02-15T11:10:17.467Z,18.27
2019-02-15T11:12:46.780Z,18.03
2019-02-15T11:15:17.901Z,18.36
2019-02-15T11:17:47.483Z,18.04
2019-02-15T11:20:18.444Z,17.57
2019-02-15T11:22:48.151Z,18.64
2019-02-15T11:25:17.470Z,19.39
2019-02-15T11:27:46.901Z,20.26
2019-02-15T11:30:17.184Z,20.36
2019-02-15T11:32:46.967Z,20.87
2019-02-15T11:35:16.257Z,21.57
2019-02-15T11:37:45.983Z,21.45
2019-02-15T11:40:16.415Z,22.20
2019-02-15T11:42:46.115Z,22.36
2019-02-15T11:45:16.028Z,22.16
2019-02-15T11:47:45.346Z,22.19
2019-02-15T11:50:15.635Z,21.78
2019-02-15T11:52:45.399Z,21.59
2019-02-15T11:55:15.074Z,21.50
2019-02-15T11:57:44.818Z,21.82
2019-02-15T12:00:25.776Z,22.09
2019-02-15T12:02:55.113Z,21.77
2019-02-15T12:05:24.750Z,22.37
2019-02-15T12:07:54.076Z,22.09
2019-02-15T12:10:23.430Z,21.94
2019-02-15T12:12:54.197Z,22.30
2019-02-15T12:15:23.899Z,22.79
2019-02-15T12:17:53.522Z,22.70
2019-02-15T12:20:22.855Z,23.03
2019-02-15T12:22:52.172Z,22.66
2019-02-15T12:25:21.700Z,22.86
2019-02-15T12:27:51.171Z,22.62
2019-02-15T12:30:21.796Z,21.79
2019-02-15T12:32:51.734Z,21.30
2019-02-15T12:35:21.063Z,21.33
2019-02-15T12:37:50.671Z,21.52
2019-02-15T12:40:20.019Z,21.80
2019-02-15T12:42:49.624Z,21.64
2019-02-15T12:45:19.388Z,21.99
2019-02-15T12:47:48.750Z,22.02
2019-02-15T12:50:21.851Z,20.85
2019-02-15T12:52:51.424Z,20.61
2019-02-15T12:55:21.295Z,19.96
2019-02-15T12:57:50.626Z,19.24
2019-02-15T13:00:20.019Z,18.75
2019-02-15T13:02:49.366Z,18.26
2019-02-15T13:05:19.105Z,17.70
2019-02-15T13:07:48.829Z,16.96
2019-02-15T13:10:23.151Z,17.07
2019-02-15T13:12:52.510Z,16.77
2019-02-15T13:15:21.816Z,16.57
2019-02-15T13:17:51.445Z,16.41
2019-02-15T13:20:20.803Z,16.21
2019-02-15T13:22:50.444Z,16.00
2019-02-15T13:25:19.782Z,15.96
2019-02-15T13:27:49.190Z,15.87
2019-02-15T13:30:18.832Z,15.75
2019-02-15T13:32:48.413Z,15.71
2019-02-15T13:35:25.231Z,15.59
2019-02-15T13:37:54.542Z,15.19
2019-02-15T13:40:24.283Z,15.34
2019-02-15T13:42:53.722Z,15.33
2019-02-15T13:45:23.354Z,15.18
2019-02-15T13:47:52.959Z,15.30
2019-02-15T13:50:22.791Z,15.29
2019-02-15T13:52:52.117Z,15.41
2019-02-15T13:55:21.775Z,15.39
2019-02-15T13:57:51.140Z,15.36
2019-02-15T14:00:20.465Z,15.41
2019-02-15T14:02:50.209Z,15.32
2019-02-15T14:05:19.509Z,15.28
2019-02-15T14:07:48.876Z,15.36
2019-02-15T14:10:18.204Z,15.40
2019-02-15T14:12:47.569Z,15.27
2019-02-15T14:15:16.912Z,15.35
2019-02-15T14:17:48.453Z,15.16
2019-02-15T14:20:17.261Z,15.32
2019-02-15T14:22:46.886Z,15.39
2019-02-15T14:25:16.200Z,15.37
2019-02-15T14:27:45.544Z,15.18
2019-02-15T14:30:15.779Z,15.34
2019-02-15T14:32:45.159Z,15.19
2019-02-15T14:35:15.494Z,15.24
2019-02-15T14:37:44.846Z,15.20
2019-02-15T14:40:15.433Z,15.06
2019-02-15T14:42:44.776Z,15.12
2019-02-15T14:45:14.774Z,15.19
2019-02-15T14:47:53.935Z,15.25
2019-02-15T14:50:15.624Z,15.17
2019-02-15T14:52:45.304Z,15.18
2019-02-15T14:55:14.907Z,15.13
2019-02-15T14:57:44.381Z,15.10
2019-02-15T15:00:15.363Z,15.03
2019-02-15T15:02:44.975Z,14.98
2019-02-15T15:05:14.483Z,14.90
2019-02-15T15:07:43.831Z,14.87
2019-02-15T15:10:13.438Z,14.78
2019-02-15T15:12:43.078Z,14.74
2019-02-15T15:15:16.060Z,14.70
2019-02-15T15:17:45.400Z,14.63
2019-02-15T15:20:14.939Z,14.49
2019-02-15T15:22:44.678Z,14.47
2019-02-15T15:25:15.821Z,14.33
2019-02-15T15:27:45.525Z,14.25
2019-02-15T15:30:16.337Z,14.16
2019-02-15T15:32:45.961Z,14.01
2019-02-15T15:35:15.394Z,13.93
2019-02-15T15:37:45.070Z,13.84
2019-02-15T15:40:18.194Z,13.77
2019-02-15T15:42:47.484Z,13.69
2019-02-15T15:45:16.838Z,13.60
2019-02-15T15:47:46.237Z,13.47
2019-02-15T15:50:15.906Z,13.33
2019-02-15T15:52:45.593Z,13.26
2019-02-15T15:55:15.087Z,13.23
2019-02-15T15:57:44.805Z,13.08
2019-02-15T16:00:16.044Z,13.04
2019-02-15T16:02:45.378Z,12.94
2019-02-15T16:05:14.728Z,12.82
2019-02-15T16:07:44.353Z,12.75
2019-02-15T16:10:15.377Z,12.69
2019-02-15T16:12:44.702Z,12.53
2019-02-15T16:15:15.093Z,12.40
2019-02-15T16:17:44.424Z,12.28
2019-02-15T16:20:14.855Z,12.12
2019-02-15T16:22:44.222Z,12.02
2019-02-15T16:25:13.848Z,11.94
2019-02-15T16:27:43.744Z,11.87
2019-02-15T16:30:15.491Z,11.74
2019-02-15T16:32:44.820Z,11.62
2019-02-15T16:35:14.463Z,11.52
2019-02-15T16:37:43.848Z,11.41
2019-02-15T16:40:16.744Z,11.32
2019-02-15T16:42:46.135Z,11.20
2019-02-15T16:45:16.378Z,11.12
2019-02-15T16:47:45.977Z,11.03
2019-02-15T16:50:15.577Z,10.95
2019-02-15T16:52:44.983Z,10.75
2019-02-15T16:55:14.584Z,10.56
2019-02-15T16:57:44.376Z,10.41
2019-02-15T17:00:15.195Z,10.39
2019-02-15T17:02:44.534Z,10.28
2019-02-15T17:05:14.148Z,10.16
2019-02-15T17:07:43.784Z,10.05
2019-02-15T17:10:13.354Z,9.91
2019-02-15T17:12:43.494Z,9.85
2019-02-15T17:15:14.956Z,9.85
2019-02-15T17:17:44.574Z,9.82
2019-02-15T17:20:14.761Z,9.74
2019-02-15T17:22:44.089Z,9.67
2019-02-15T17:25:13.804Z,9.58
2019-02-15T17:27:43.138Z,9.53
2019-02-15T17:30:12.987Z,9.44
2019-02-15T17:32:42.371Z,9.36
2019-02-15T17:35:12.711Z,9.27
2019-02-15T17:37:42.326Z,9.24
2019-02-15T17:40:15.839Z,9.41
2019-02-15T17:42:45.151Z,9.21
2019-02-15T17:45:14.559Z,9.06
2019-02-15T17:47:44.139Z,8.90
2019-02-15T17:50:13.953Z,8.77
2019-02-15T17:52:44.163Z,8.75
2019-02-15T17:55:14.415Z,8.60
2019-02-15T17:57:44.581Z,8.55
2019-02-15T18:00:17.587Z,8.42
2019-02-15T18:02:48.272Z,8.35
2019-02-15T18:05:19.068Z,8.30
2019-02-15T18:07:52.104Z,8.26
2019-02-15T18:10:23.454Z,8.27
2019-02-15T18:12:53.232Z,8.22
2019-02-15T18:15:28.114Z,8.12
2019-02-15T18:17:56.988Z,7.81
2019-02-15T18:20:26.567Z,8.02
2019-02-15T18:22:56.049Z,7.99
2019-02-15T18:25:25.658Z,7.98
2019-02-15T18:27:54.995Z,7.96
2019-02-15T18:30:24.653Z,7.90
2019-02-15T18:32:54.134Z,7.86
2019-02-15T18:35:23.552Z,7.90
2019-02-15T18:37:53.217Z,7.87
2019-02-15T18:40:22.796Z,7.78
2019-02-15T18:42:52.418Z,7.92
2019-02-15T18:45:22.086Z,7.97
2019-02-15T18:47:51.564Z,7.91
2019-02-15T18:50:21.384Z,7.77
2019-02-15T18:52:50.711Z,7.65
2019-02-15T18:55:20.055Z,7.57
2019-02-15T18:57:49.748Z,7.54
2019-02-15T19:00:19.159Z,7.50
2019-02-15T19:02:53.466Z,7.43
2019-02-15T19:05:23.111Z,7.33
2019-02-15T19:07:52.779Z,7.36
2019-02-15T19:10:23.908Z,7.28
2019-02-15T19:12:53.580Z,7.24
2019-02-15T19:15:23.148Z,7.16
2019-02-15T19:17:52.797Z,7.06
2019-02-15T19:20:23.076Z,7.06
2019-02-15T19:22:52.640Z,7.01
2019-02-15T19:25:22.042Z,6.95
2019-02-15T19:27:51.626Z,6.87
2019-02-15T19:30:34.263Z,6.84
2019-02-15T19:33:03.843Z,6.83
2019-02-15T19:35:33.214Z,6.81
2019-02-15T19:38:02.857Z,6.80
2019-02-15T19:40:32.184Z,6.72
2019-02-15T19:43:08.821Z,6.62
2019-02-15T19:45:38.128Z,6.57
2019-02-15T19:48:07.509Z,6.48
2019-02-15T19:50:36.807Z,6.50
2019-02-15T19:53:06.381Z,6.50
2019-02-15T19:55:36.131Z,6.39
2019-02-15T19:58:05.756Z,6.34
2019-02-15T20:00:35.721Z,6.44
2019-02-15T20:03:05.488Z,6.38
2019-02-15T20:05:35.159Z,6.21
2019-02-15T20:08:04.773Z,6.03
2019-02-15T20:10:34.358Z,5.98
2019-02-15T20:13:04.342Z,5.98
2019-02-15T20:15:33.757Z,5.96
2019-02-15T20:18:03.439Z,5.88
2019-02-15T20:20:33.079Z,5.83
2019-02-15T20:23:02.680Z,5.78
2019-02-15T20:25:32.285Z,5.71
2019-02-15T20:28:01.848Z,5.75
2019-02-15T20:30:32.353Z,5.65
2019-02-15T20:33:01.970Z,5.66
2019-02-15T20:35:31.584Z,5.55
2019-02-15T20:38:00.933Z,5.52
2019-02-15T20:40:30.552Z,5.55
2019-02-15T20:43:00.224Z,5.54
2019-02-15T20:45:29.868Z,5.45
2019-02-15T20:47:59.507Z,5.39
2019-02-15T20:50:29.225Z,5.30
2019-02-15T20:52:58.549Z,5.28
2019-02-15T20:55:28.161Z,5.22
2019-02-15T20:57:57.555Z,5.19
2019-02-15T21:00:29.531Z,4.95
2019-02-15T21:02:59.135Z,5.13
2019-02-15T21:05:28.838Z,5.00
2019-02-15T21:07:58.450Z,5.00
2019-02-15T21:10:28.181Z,4.98
2019-02-15T21:12:57.548Z,4.90
2019-02-15T21:15:27.143Z,4.82
2019-02-15T21:17:56.476Z,4.81
2019-02-15T21:20:26.085Z,4.71
2019-02-15T21:22:55.650Z,4.71
2019-02-15T21:25:25.247Z,4.71
2019-02-15T21:27:54.911Z,4.67
2019-02-15T21:30:24.538Z,4.61
2019-02-15T21:32:53.873Z,4.63
2019-02-15T21:35:23.277Z,4.66
2019-02-15T21:37:52.948Z,4.61
2019-02-15T21:40:22.298Z,4.67
2019-02-15T21:42:52.261Z,4.51
2019-02-15T21:45:21.734Z,4.41
2019-02-15T21:47:51.410Z,4.41
2019-02-15T21:50:21.007Z,4.39
2019-02-15T21:52:50.657Z,4.26
2019-02-15T21:55:20.262Z,4.16
2019-02-15T21:57:49.866Z,4.20
2019-02-15T22:00:25.623Z,4.08
2019-02-15T22:02:54.967Z,4.06
2019-02-15T22:05:24.366Z,4.00
2019-02-15T22:07:53.975Z,4.01
2019-02-15T22:10:23.374Z,3.98
2019-02-15T22:12:52.952Z,3.94
2019-02-15T22:15:22.535Z,3.98
2019-02-15T22:17:51.898Z,3.92
2019-02-15T22:20:26.688Z,3.88
2019-02-15T22:22:53.363Z,3.82
2019-02-15T22:25:22.971Z,3.75
2019-02-15T22:27:52.328Z,3.75
2019-02-15T22:30:21.835Z,3.70
2019-02-15T22:32:51.541Z,3.70
2019-02-15T22:35:20.876Z,3.69
2019-02-15T22:37:50.209Z,3.59
2019-02-15T22:40:34.655Z,3.54
2019-02-15T22:43:10.688Z,3.54
2019-02-15T22:45:40.329Z,3.58
2019-02-15T22:48:09.908Z,3.61
2019-02-15T22:50:39.518Z,3.51
2019-02-15T22:53:09.168Z,3.55
2019-02-15T22:55:38.509Z,3.59
2019-02-15T22:58:07.826Z,3.60
2019-02-15T23:00:51.846Z,3.58
2019-02-15T23:03:27.213Z,3.56
2019-02-15T23:05:56.906Z,3.43
2019-02-15T23:08:26.566Z,3.44
2019-02-15T23:10:56.267Z,3.40
2019-02-15T23:13:25.846Z,3.38
2019-02-15T23:15:55.421Z,3.37
2019-02-15T23:18:25.030Z,3.39
2019-02-15T23:20:54.704Z,3.26
2019-02-15T23:23:24.333Z,3.22
2019-02-15T23:25:53.649Z,3.18
2019-02-15T23:28:22.958Z,3.15
2019-02-15T23:30:52.313Z,3.24
2019-02-15T23:33:21.665Z,3.06
2019-02-15T23:35:51.014Z,3.01
2019-02-15T23:38:20.411Z,2.99
2019-02-15T23:40:50.002Z,2.97
2019-02-15T23:43:19.347Z,2.99
2019-02-15T23:45:48.997Z,2.98
2019-02-15T23:48:18.599Z,2.88
2019-02-15T23:50:54.304Z,2.82
2019-02-15T23:53:19.693Z,2.89
2019-02-15T23:55:49.120Z,2.78
2019-02-15T23:58:18.473Z,2.73
